Time;durP1;ratioP1;P1;durP2;ratioP2;P2;SDS_P1;SDS_P2;PMS_P1;PMS_P2;Temp;Humidity;BMP_temperature;BMP_pressure;BME280_temperature;BME280_humidity;BME280_pressure;Samples;Min_cycle;Max_cycle;Signal;HPM_P1;HPM_P2
2022/01/06 00:00:13;;;;;;;;;15.50;14.00;;;;;;;;5045903;28;45484;-76
2022/01/06 00:02:39;;;;;;;;;14.25;13.25;;;;;;;;5046371;28;45953;-75
2022/01/06 00:05:14;;;;;;;;;21.50;18.75;;;;;;;;5048649;28;45393;-75
2022/01/06 00:07:39;;;;;;;;;24.25;21.75;;;;;;;;5047844;28;45439;-75
2022/01/06 00:10:07;;;;;;;;;21.25;20.50;;;;;;;;5047064;28;45425;-74
2022/01/06 00:12:44;;;;;;;;;27.50;20.75;;;;;;;;5046711;28;45461;-74
2022/01/06 00:25:54;;;;;;;;;14.50;12.00;;;;;;;;5047487;28;45757;-74
2022/01/06 00:28:20;;;;;;;;;11.25;10.00;;;;;;;;5046477;28;45413;-75
2022/01/06 00:30:45;;;;;;;;;16.50;14.75;;;;;;;;5048040;28;45415;-75
2022/01/06 00:33:11;;;;;;;;;17.50;16.00;;;;;;;;5046183;28;45354;-75
2022/01/06 00:35:38;;;;;;;;;8.25;8.25;;;;;;;;5046351;28;45467;-74
2022/01/06 00:38:06;;;;;;;;;18.00;15.00;;;;;;;;5047659;28;45474;-74
2022/01/06 00:40:32;;;;;;;;;11.00;7.00;;;;;;;;5046052;28;45596;-75
2022/01/06 00:42:57;;;;;;;;;8.00;8.00;;;;;;;;5048041;28;45499;-74
2022/01/06 00:45:23;;;;;;;;;8.00;8.00;;;;;;;;5047215;28;45418;-74
2022/01/06 00:47:48;;;;;;;;;16.25;12.00;;;;;;;;5044167;28;45420;-74
2022/01/06 00:50:14;;;;;;;;;11.50;9.50;;;;;;;;5045476;28;45411;-75
2022/01/06 00:52:39;;;;;;;;;18.00;16.50;;;;;;;;5046355;28;45363;-75
2022/01/06 00:55:04;;;;;;;;;19.00;15.00;;;;;;;;5044916;28;45447;-75
2022/01/06 00:57:30;;;;;;;;;8.50;7.50;;;;;;;;5046576;28;45549;-75
2022/01/06 00:59:55;;;;;;;;;8.00;8.00;;;;;;;;5045019;28;45397;-75
2022/01/06 01:02:20;;;;;;;;;8.50;7.50;;;;;;;;5045186;28;45467;-74
2022/01/06 01:04:47;;;;;;;;;8.25;8.00;;;;;;;;5045344;28;45319;-75
2022/01/06 01:07:13;;;;;;;;;7.00;7.00;;;;;;;;5047501;28;45398;-75
2022/01/06 01:09:38;;;;;;;;;8.75;8.00;;;;;;;;5045778;28;45300;-74
2022/01/06 01:12:04;;;;;;;;;8.25;8.25;;;;;;;;5044791;28;46235;-74
2022/01/06 01:14:32;;;;;;;;;11.00;9.25;;;;;;;;5046560;28;45615;-74
2022/01/06 01:16:59;;;;;;;;;10.00;9.00;;;;;;;;5045196;28;45423;-74
2022/01/06 01:19:25;;;;;;;;;9.50;8.75;;;;;;;;5044866;28;45742;-75
2022/01/06 01:21:51;;;;;;;;;12.00;8.75;;;;;;;;5046754;28;46081;-75
2022/01/06 01:24:16;;;;;;;;;9.25;8.00;;;;;;;;5045424;28;45492;-75
2022/01/06 01:26:42;;;;;;;;;17.75;16.75;;;;;;;;5045540;28;45428;-75
2022/01/06 01:29:15;;;;;;;;;10.25;9.25;;;;;;;;5044199;28;45515;-74
2022/01/06 01:31:45;;;;;;;;;8.00;7.75;;;;;;;;5045676;28;45607;-75
2022/01/06 01:34:12;;;;;;;;;8.25;7.00;;;;;;;;5046267;28;45437;-74
2022/01/06 01:36:38;;;;;;;;;8.50;8.50;;;;;;;;5044582;28;45451;-74
2022/01/06 01:39:03;;;;;;;;;9.00;9.00;;;;;;;;5044602;28;45374;-75
2022/01/06 01:41:29;;;;;;;;;6.50;5.00;;;;;;;;5045732;28;45347;-75
2022/01/06 01:43:55;;;;;;;;;9.50;8.00;;;;;;;;5036218;28;45399;-75
2022/01/06 01:46:28;;;;;;;;;9.25;7.75;;;;;;;;5036416;28;45674;-75
2022/01/06 01:49:28;;;;;;;;;9.25;5.00;;;;;;;;5036472;28;45420;-75
2022/01/06 01:51:39;;;;;;;;;7.00;4.50;;;;;;;;5036166;28;45480;-75
2022/01/06 01:54:05;;;;;;;;;3.50;2.00;;;;;;;;5036349;28;45430;-74
2022/01/06 01:56:30;;;;;;;;;10.00;5.00;;;;;;;;5036337;28;45179;-75
2022/01/06 01:58:56;;;;;;;;;6.50;4.50;;;;;;;;5039638;28;45780;-75
2022/01/06 02:01:21;;;;;;;;;8.75;5.00;;;;;;;;5038761;28;46184;-75
2022/01/06 02:03:46;;;;;;;;;7.75;4.75;;;;;;;;5042713;28;45397;-75
2022/01/06 02:06:12;;;;;;;;;10.00;8.00;;;;;;;;5039576;28;45461;-75
2022/01/06 02:08:37;;;;;;;;;6.50;4.75;;;;;;;;5039971;28;45374;-75
2022/01/06 02:11:02;;;;;;;;;7.00;6.50;;;;;;;;5039445;28;46047;-76
2022/01/06 02:13:29;;;;;;;;;6.50;5.00;;;;;;;;5039268;28;45324;-75
2022/01/06 02:15:56;;;;;;;;;7.50;5.00;;;;;;;;5039369;28;45312;-75
2022/01/06 02:18:21;;;;;;;;;4.75;4.75;;;;;;;;5039918;28;45306;-75
2022/01/06 02:20:46;;;;;;;;;6.50;6.00;;;;;;;;5039375;28;46007;-75
2022/01/06 02:23:12;;;;;;;;;11.75;8.50;;;;;;;;5039413;28;45799;-74
2022/01/06 02:25:37;;;;;;;;;5.00;5.00;;;;;;;;5037908;28;45515;-75
2022/01/06 02:28:04;;;;;;;;;5.00;5.00;;;;;;;;5039696;28;45381;-74
2022/01/06 02:30:32;;;;;;;;;6.75;5.00;;;;;;;;5039008;28;46360;-75
2022/01/06 02:32:59;;;;;;;;;6.00;4.50;;;;;;;;5039910;28;45443;-74
2022/01/06 02:35:25;;;;;;;;;8.75;7.00;;;;;;;;5039066;28;45520;-74
2022/01/06 02:37:50;;;;;;;;;4.00;4.00;;;;;;;;5039540;28;45376;-75
2022/01/06 02:40:17;;;;;;;;;7.50;7.25;;;;;;;;5039323;28;45643;-74
2022/01/06 02:42:57;;;;;;;;;5.00;4.00;;;;;;;;5045036;28;45557;-75
2022/01/06 02:45:26;;;;;;;;;5.00;4.00;;;;;;;;5049571;28;45227;-75
2022/01/06 02:47:52;;;;;;;;;7.50;7.00;;;;;;;;5041546;28;45489;-75
2022/01/06 02:50:17;;;;;;;;;8.50;7.75;;;;;;;;5038868;28;46323;-75
2022/01/06 02:52:43;;;;;;;;;6.50;4.75;;;;;;;;5039213;28;45423;-75
2022/01/06 02:55:10;;;;;;;;;7.50;4.00;;;;;;;;5039004;28;45262;-75
2022/01/06 02:57:36;;;;;;;;;7.25;7.00;;;;;;;;5038940;28;45269;-75
2022/01/06 03:00:03;;;;;;;;;6.00;4.75;;;;;;;;5038870;28;45866;-74
2022/01/06 03:02:28;;;;;;;;;6.50;6.50;;;;;;;;5038609;28;45611;-74
2022/01/06 03:04:54;;;;;;;;;5.00;5.00;;;;;;;;5039035;28;45949;-75
2022/01/06 03:07:19;;;;;;;;;5.00;4.75;;;;;;;;5038961;28;45475;-75
2022/01/06 03:09:51;;;;;;;;;2.50;2.50;;;;;;;;5038879;28;45377;-75
2022/01/06 03:12:25;;;;;;;;;9.00;7.00;;;;;;;;5039505;28;45481;-75
2022/01/06 03:14:50;;;;;;;;;4.25;2.00;;;;;;;;5038545;28;45358;-75
2022/01/06 03:17:15;;;;;;;;;5.00;4.00;;;;;;;;5039028;28;45460;-75
2022/01/06 03:19:42;;;;;;;;;4.00;4.00;;;;;;;;5039653;28;45445;-75
2022/01/06 03:22:08;;;;;;;;;6.00;5.00;;;;;;;;5041676;28;45255;-75
2022/01/06 03:24:33;;;;;;;;;10.00;9.00;;;;;;;;5038526;28;45560;-75
2022/01/06 03:26:58;;;;;;;;;10.50;7.00;;;;;;;;5038335;28;45532;-75
2022/01/06 03:29:24;;;;;;;;;4.00;4.00;;;;;;;;5037883;28;45506;-75
2022/01/06 03:31:49;;;;;;;;;5.00;4.00;;;;;;;;5038074;28;45429;-75
2022/01/06 03:34:15;;;;;;;;;7.00;4.25;;;;;;;;5038427;28;45860;-75
2022/01/06 03:36:40;;;;;;;;;7.00;4.25;;;;;;;;5038459;28;45204;-75
2022/01/06 03:39:06;;;;;;;;;8.00;7.00;;;;;;;;5036479;28;45453;-75
2022/01/06 03:41:32;;;;;;;;;7.50;6.50;;;;;;;;5038865;28;45423;-75
2022/01/06 03:43:58;;;;;;;;;7.75;5.50;;;;;;;;5038475;28;45369;-75
2022/01/06 03:46:23;;;;;;;;;5.00;5.00;;;;;;;;5039198;28;45396;-75
2022/01/06 03:48:48;;;;;;;;;7.00;5.50;;;;;;;;5038722;28;46062;-75
2022/01/06 03:51:18;;;;;;;;;5.00;4.00;;;;;;;;5040412;28;45472;-75
2022/01/06 03:53:44;;;;;;;;;4.00;3.50;;;;;;;;5045102;28;45615;-75
2022/01/06 03:56:09;;;;;;;;;2.00;2.00;;;;;;;;5046079;28;45788;-72
2022/01/06 03:58:34;;;;;;;;;4.50;2.50;;;;;;;;5047052;28;45444;-75
2022/01/06 04:01:00;;;;;;;;;4.25;4.00;;;;;;;;5045723;28;45471;-74
2022/01/06 04:03:25;;;;;;;;;5.75;4.25;;;;;;;;5045841;28;45484;-74
2022/01/06 04:05:50;;;;;;;;;4.25;4.00;;;;;;;;5046995;28;45715;-74
2022/01/06 04:08:16;;;;;;;;;6.50;3.50;;;;;;;;5045302;28;45940;-74
2022/01/06 04:10:41;;;;;;;;;6.25;5.25;;;;;;;;5048831;28;45546;-73
2022/01/06 04:13:07;;;;;;;;;5.25;4.25;;;;;;;;5045468;28;45452;-74
2022/01/06 04:15:32;;;;;;;;;5.00;5.00;;;;;;;;5044610;28;45448;-74
2022/01/06 04:17:57;;;;;;;;;4.00;4.00;;;;;;;;5046432;28;46269;-75
2022/01/06 04:20:23;;;;;;;;;11.00;9.50;;;;;;;;5045313;28;45518;-74
2022/01/06 04:22:48;;;;;;;;;31.00;26.50;;;;;;;;5045130;28;46036;-74
2022/01/06 04:25:14;;;;;;;;;7.00;7.00;;;;;;;;5044530;28;45588;-74
2022/01/06 04:27:39;;;;;;;;;15.75;13.00;;;;;;;;5046170;28;46030;-74
2022/01/06 04:30:06;;;;;;;;;17.00;14.75;;;;;;;;5045668;28;45592;-74
2022/01/06 04:32:32;;;;;;;;;19.50;17.75;;;;;;;;5044671;28;45472;-75
2022/01/06 04:34:58;;;;;;;;;13.50;12.25;;;;;;;;5046581;28;45555;-75
2022/01/06 04:37:24;;;;;;;;;10.50;8.75;;;;;;;;5045488;28;46752;-73
2022/01/06 04:39:50;;;;;;;;;5.50;4.00;;;;;;;;5046098;28;45257;-74
2022/01/06 04:42:15;;;;;;;;;6.50;5.50;;;;;;;;5048179;28;45739;-74
2022/01/06 04:44:40;;;;;;;;;7.75;4.00;;;;;;;;5045141;28;45403;-74
2022/01/06 04:47:06;;;;;;;;;7.50;4.50;;;;;;;;5047373;28;46196;-75
2022/01/06 04:49:31;;;;;;;;;5.00;3.00;;;;;;;;5044670;28;45397;-75
2022/01/06 04:52:07;;;;;;;;;4.00;4.00;;;;;;;;5049418;28;45475;-75
2022/01/06 04:54:33;;;;;;;;;0.00;0.00;;;;;;;;5044892;28;45445;-74
2022/01/06 04:56:58;;;;;;;;;3.50;2.00;;;;;;;;5046360;28;46152;-74
2022/01/06 04:59:23;;;;;;;;;1.50;1.50;;;;;;;;5045447;28;45516;-74
2022/01/06 05:01:49;;;;;;;;;5.25;2.00;;;;;;;;5044896;28;45516;-74
2022/01/06 05:04:14;;;;;;;;;5.00;5.00;;;;;;;;5048042;28;45498;-74
2022/01/06 05:06:40;;;;;;;;;3.50;2.00;;;;;;;;5046185;28;45539;-74
2022/01/06 05:09:05;;;;;;;;;4.50;4.00;;;;;;;;5045586;28;45464;-74
2022/01/06 05:11:30;;;;;;;;;3.50;2.00;;;;;;;;5044820;28;45503;-75
2022/01/06 05:13:56;;;;;;;;;2.00;1.50;;;;;;;;5044796;28;45386;-74
2022/01/06 05:16:21;;;;;;;;;3.50;3.50;;;;;;;;5045980;28;45499;-74
2022/01/06 05:18:47;;;;;;;;;2.00;2.00;;;;;;;;5046240;28;45547;-73
2022/01/06 05:21:12;;;;;;;;;2.50;2.00;;;;;;;;5044321;28;45463;-74
2022/01/06 05:23:39;;;;;;;;;2.00;1.50;;;;;;;;5044471;28;45349;-75
2022/01/06 05:26:04;;;;;;;;;7.00;5.50;;;;;;;;5044779;28;45999;-73
2022/01/06 05:28:30;;;;;;;;;7.00;5.00;;;;;;;;5045869;28;45459;-74
2022/01/06 05:30:55;;;;;;;;;4.00;4.00;;;;;;;;5044305;28;45330;-74
2022/01/06 05:33:20;;;;;;;;;4.25;4.25;;;;;;;;5046854;28;45409;-74
2022/01/06 05:35:46;;;;;;;;;4.50;4.00;;;;;;;;5048885;28;45247;-74
2022/01/06 05:38:11;;;;;;;;;7.50;5.50;;;;;;;;5042556;28;45539;-74
2022/01/06 05:40:37;;;;;;;;;4.00;4.00;;;;;;;;5039861;28;45751;-74
2022/01/06 05:43:02;;;;;;;;;12.00;8.50;;;;;;;;5040062;28;45503;-74
2022/01/06 05:45:28;;;;;;;;;7.25;5.50;;;;;;;;5039667;28;46099;-74
2022/01/06 05:47:54;;;;;;;;;33.25;27.00;;;;;;;;5039715;28;45634;-74
2022/01/06 05:50:20;;;;;;;;;12.00;8.50;;;;;;;;5040196;28;45501;-74
2022/01/06 05:52:46;;;;;;;;;31.00;29.25;;;;;;;;5040179;28;45378;-74
2022/01/06 05:55:11;;;;;;;;;10.75;10.00;;;;;;;;5039857;28;45457;-74
2022/01/06 05:57:36;;;;;;;;;7.00;7.00;;;;;;;;5039582;28;45456;-74
2022/01/06 06:00:03;;;;;;;;;9.50;7.50;;;;;;;;5039571;28;45337;-74
2022/01/06 06:02:28;;;;;;;;;16.50;13.25;;;;;;;;5039595;28;45366;-74
2022/01/06 06:04:54;;;;;;;;;5.00;5.00;;;;;;;;5038284;28;45541;-74
2022/01/06 06:07:20;;;;;;;;;2.50;2.00;;;;;;;;5040035;28;45420;-74
2022/01/06 06:09:45;;;;;;;;;4.75;4.50;;;;;;;;5039399;28;45410;-74
2022/01/06 06:12:11;;;;;;;;;7.50;5.00;;;;;;;;5039999;28;45896;-74
2022/01/06 06:14:36;;;;;;;;;5.00;4.50;;;;;;;;5039447;28;46334;-74
2022/01/06 06:17:02;;;;;;;;;4.50;3.50;;;;;;;;5039318;28;45424;-74
2022/01/06 06:19:27;;;;;;;;;4.50;4.25;;;;;;;;5039463;28;45344;-74
2022/01/06 06:21:52;;;;;;;;;2.00;2.00;;;;;;;;5039698;28;45429;-74
2022/01/06 06:24:20;;;;;;;;;2.50;2.00;;;;;;;;5039236;28;45411;-74
2022/01/06 06:26:45;;;;;;;;;4.00;2.00;;;;;;;;5043282;28;45476;-74
2022/01/06 06:29:10;;;;;;;;;4.25;2.00;;;;;;;;5041248;28;45681;-74
2022/01/06 06:31:36;;;;;;;;;2.50;1.75;;;;;;;;5039961;28;45405;-74
2022/01/06 06:34:01;;;;;;;;;2.00;2.00;;;;;;;;5038826;28;45512;-76
2022/01/06 06:36:27;;;;;;;;;6.50;4.50;;;;;;;;5038786;28;45312;-75
2022/01/06 06:38:52;;;;;;;;;5.00;2.00;;;;;;;;5039350;28;45447;-75
2022/01/06 06:41:17;;;;;;;;;2.00;2.00;;;;;;;;5039140;28;45425;-76
2022/01/06 06:43:43;;;;;;;;;11.00;11.00;;;;;;;;5038117;28;46643;-76
2022/01/06 06:46:08;;;;;;;;;2.00;2.00;;;;;;;;5038566;28;45515;-75
2022/01/06 06:48:33;;;;;;;;;13.00;11.50;;;;;;;;5038906;28;45355;-75
2022/01/06 06:51:00;;;;;;;;;5.00;5.00;;;;;;;;5041503;28;45396;-73
2022/01/06 06:53:25;;;;;;;;;8.00;5.00;;;;;;;;5048165;28;46075;-72
2022/01/06 06:55:50;;;;;;;;;7.00;5.50;;;;;;;;5048061;28;45370;-75
2022/01/06 06:58:16;;;;;;;;;7.25;6.50;;;;;;;;5050302;28;45902;-76
2022/01/06 07:00:41;;;;;;;;;12.50;8.50;;;;;;;;5048540;28;45487;-76
2022/01/06 07:03:07;;;;;;;;;17.00;15.25;;;;;;;;5045700;28;46257;-76
2022/01/06 07:05:32;;;;;;;;;4.00;4.00;;;;;;;;5047552;28;45832;-75
2022/01/06 07:07:58;;;;;;;;;97.00;70.00;;;;;;;;5046704;28;45529;-74
2022/01/06 07:10:24;;;;;;;;;67.75;48.00;;;;;;;;5047941;28;45409;-74
2022/01/06 07:12:50;;;;;;;;;84.00;64.33;;;;;;;;5046361;28;46265;-75
2022/01/06 07:15:15;;;;;;;;;86.33;64.33;;;;;;;;5046248;28;45515;-75
2022/01/06 07:17:41;;;;;;;;;67.75;51.75;;;;;;;;5042618;28;45520;-74
2022/01/06 07:20:07;;;;;;;;;22.75;20.75;;;;;;;;5039707;28;45375;-75
2022/01/06 07:22:32;;;;;;;;;19.75;14.00;;;;;;;;5038380;28;45436;-75
2022/01/06 07:24:58;;;;;;;;;37.75;32.50;;;;;;;;5038092;28;45458;-75
2022/01/06 07:27:23;;;;;;;;;46.50;43.25;;;;;;;;5038620;28;45460;-75
2022/01/06 07:29:48;;;;;;;;;37.25;32.50;;;;;;;;5038501;28;45319;-75
2022/01/06 07:32:14;;;;;;;;;51.75;44.50;;;;;;;;5037869;28;46105;-74
2022/01/06 07:34:39;;;;;;;;;72.67;58.00;;;;;;;;5036602;28;45349;-76
2022/01/06 07:37:05;;;;;;;;;32.25;28.25;;;;;;;;5038086;28;45437;-75
2022/01/06 07:39:30;;;;;;;;;45.25;39.50;;;;;;;;5038169;28;45358;-75
2022/01/06 07:41:55;;;;;;;;;73.67;58.00;;;;;;;;5038195;28;45480;-75
2022/01/06 07:44:21;;;;;;;;;40.50;38.25;;;;;;;;5037980;28;45233;-75
2022/01/06 07:46:47;;;;;;;;;56.00;45.25;;;;;;;;5038170;28;45405;-74
2022/01/06 07:49:13;;;;;;;;;87.67;70.33;;;;;;;;5036896;28;45500;-74
2022/01/06 07:51:38;;;;;;;;;47.25;44.50;;;;;;;;5037556;28;46396;-74
2022/01/06 07:54:04;;;;;;;;;43.50;36.00;;;;;;;;5037554;28;45490;-74
2022/01/06 07:56:29;;;;;;;;;20.75;17.00;;;;;;;;5036859;28;45776;-74
2022/01/06 07:58:55;;;;;;;;;18.25;17.00;;;;;;;;5038093;28;45679;-75
2022/01/06 08:01:20;;;;;;;;;8.75;5.00;;;;;;;;5038029;28;46022;-74
2022/01/06 08:03:46;;;;;;;;;14.00;12.25;;;;;;;;5038110;28;45424;-75
2022/01/06 08:06:12;;;;;;;;;66.25;56.50;;;;;;;;5037481;28;45504;-75
2022/01/06 08:08:37;;;;;;;;;12.25;12.00;;;;;;;;5037443;28;45259;-75
2022/01/06 08:11:03;;;;;;;;;13.00;8.00;;;;;;;;5037131;28;45457;-75
2022/01/06 08:13:28;;;;;;;;;10.50;8.25;;;;;;;;5037519;28;45450;-75
2022/01/06 08:15:54;;;;;;;;;10.00;7.00;;;;;;;;5037849;28;45343;-75
2022/01/06 08:18:19;;;;;;;;;4.50;4.50;;;;;;;;5037855;28;45449;-75
2022/01/06 08:20:44;;;;;;;;;6.00;5.00;;;;;;;;5037431;28;45993;-75
2022/01/06 08:23:10;;;;;;;;;27.50;24.50;;;;;;;;5037294;28;45434;-75
2022/01/06 08:25:36;;;;;;;;;85.00;68.33;;;;;;;;5037384;28;45751;-75
2022/01/06 08:28:01;;;;;;;;;19.50;18.00;;;;;;;;5037712;28;45362;-76
2022/01/06 08:30:27;;;;;;;;;54.25;43.75;;;;;;;;5037293;28;45515;-76
2022/01/06 08:32:54;;;;;;;;;37.25;29.75;;;;;;;;5037447;28;45258;-75
2022/01/06 08:35:20;;;;;;;;;9.50;9.50;;;;;;;;5037882;28;45439;-74
2022/01/06 08:37:45;;;;;;;;;10.00;10.00;;;;;;;;5037570;28;45509;-75
2022/01/06 08:40:11;;;;;;;;;15.25;14.25;;;;;;;;5036916;28;46093;-75
2022/01/06 08:42:36;;;;;;;;;29.00;26.00;;;;;;;;5037113;28;45390;-75
2022/01/06 08:45:02;;;;;;;;;37.25;33.75;;;;;;;;5037369;28;45341;-75
2022/01/06 08:47:29;;;;;;;;;25.25;24.25;;;;;;;;5039667;28;45349;-74
2022/01/06 08:49:55;;;;;;;;;17.50;15.00;;;;;;;;5044653;28;45579;-75
2022/01/06 08:52:20;;;;;;;;;20.75;20.75;;;;;;;;5044989;28;46534;-74
2022/01/06 08:54:45;;;;;;;;;46.00;37.00;;;;;;;;5044185;28;45469;-75
2022/01/06 08:57:11;;;;;;;;;23.75;19.25;;;;;;;;5044407;28;45488;-75
2022/01/06 08:59:36;;;;;;;;;27.50;24.25;;;;;;;;5043760;28;45904;-75
2022/01/06 09:02:01;;;;;;;;;27.00;25.75;;;;;;;;5043516;28;45488;-75
2022/01/06 09:04:27;;;;;;;;;21.00;19.50;;;;;;;;5046335;28;45563;-75
2022/01/06 09:06:52;;;;;;;;;21.75;19.75;;;;;;;;5045460;28;45472;-74
2022/01/06 09:09:18;;;;;;;;;21.00;18.50;;;;;;;;5048738;28;45582;-74
2022/01/06 09:11:44;;;;;;;;;38.25;29.00;;;;;;;;5049347;28;45467;-74
2022/01/06 09:14:10;;;;;;;;;31.00;23.00;;;;;;;;5049410;28;45424;-75
2022/01/06 09:16:36;;;;;;;;;38.75;33.25;;;;;;;;5050675;28;45333;-74
2022/01/06 09:19:02;;;;;;;;;33.75;30.00;;;;;;;;5048746;28;45517;-78
2022/01/06 09:21:27;;;;;;;;;10.50;9.00;;;;;;;;5047118;28;45690;-75
2022/01/06 09:23:54;;;;;;;;;27.25;25.75;;;;;;;;5048646;28;45883;-75
2022/01/06 09:26:20;;;;;;;;;15.00;13.50;;;;;;;;5048761;28;45433;-75
2022/01/06 09:28:45;;;;;;;;;23.75;22.00;;;;;;;;5045359;28;45392;-75
2022/01/06 09:31:11;;;;;;;;;25.50;20.00;;;;;;;;5048218;28;45317;-75
2022/01/06 09:33:36;;;;;;;;;23.50;21.00;;;;;;;;5047925;28;45417;-75
2022/01/06 09:36:02;;;;;;;;;21.25;19.50;;;;;;;;5059256;28;46520;-75
2022/01/06 09:38:27;;;;;;;;;24.25;22.50;;;;;;;;5059380;28;45337;-74
2022/01/06 09:40:52;;;;;;;;;17.50;17.25;;;;;;;;5059095;28;45474;-75
2022/01/06 09:43:23;;;;;;;;;23.50;20.25;;;;;;;;5058095;28;45872;-79
2022/01/06 09:45:48;;;;;;;;;22.50;21.75;;;;;;;;5059362;28;45429;-79
2022/01/06 09:48:14;;;;;;;;;32.75;30.75;;;;;;;;5058868;28;45512;-77
2022/01/06 09:50:43;;;;;;;;;24.75;21.75;;;;;;;;5058914;28;45691;-76
2022/01/06 09:53:11;;;;;;;;;12.00;11.25;;;;;;;;5059163;28;45346;-78
2022/01/06 09:55:37;;;;;;;;;18.75;13.75;;;;;;;;5059543;28;45542;-74
2022/01/06 09:58:03;;;;;;;;;29.25;27.25;;;;;;;;5058705;28;45515;-72
2022/01/06 10:00:29;;;;;;;;;8.00;6.33;;;;;;;;5058917;28;45489;-72
2022/01/06 10:02:56;;;;;;;;;11.75;10.00;;;;;;;;5059029;28;45361;-75
2022/01/06 10:05:22;;;;;;;;;9.33;6.67;;;;;;;;5058897;28;45575;-73
2022/01/06 10:07:48;;;;;;;;;19.50;18.25;;;;;;;;5058626;28;45972;-76
2022/01/06 10:10:14;;;;;;;;;8.67;8.00;;;;;;;;5058532;28;45364;-73
2022/01/06 10:12:40;;;;;;;;;14.00;14.00;;;;;;;;5059039;28;45377;-73
2022/01/06 10:15:26;;;;;;;;;11.75;11.25;;;;;;;;5058774;28;45612;-73
2022/01/06 10:17:52;;;;;;;;;11.00;10.00;;;;;;;;5057853;28;45736;-74
2022/01/06 10:20:22;;;;;;;;;8.00;7.33;;;;;;;;5057668;28;45501;-72
2022/01/06 10:22:48;;;;;;;;;7.00;6.33;;;;;;;;5058555;28;45438;-73
2022/01/06 10:25:14;;;;;;;;;8.00;7.67;;;;;;;;5057317;28;45395;-72
2022/01/06 10:27:41;;;;;;;;;28.75;27.75;;;;;;;;5058266;28;45950;-72
2022/01/06 10:30:07;;;;;;;;;13.00;12.50;;;;;;;;5057063;28;45570;-73
2022/01/06 10:32:33;;;;;;;;;14.75;13.25;;;;;;;;5056945;28;45252;-73
2022/01/06 10:35:03;;;;;;;;;10.67;10.33;;;;;;;;5057786;28;45496;-75
2022/01/06 10:37:30;;;;;;;;;16.50;15.25;;;;;;;;5057859;28;46380;-75
2022/01/06 10:40:00;;;;;;;;;16.50;16.25;;;;;;;;5058948;28;45436;-75
2022/01/06 10:42:30;;;;;;;;;11.00;10.75;;;;;;;;5058923;28;45533;-76
2022/01/06 10:44:58;;;;;;;;;10.00;10.00;;;;;;;;5059078;28;45482;-75
2022/01/06 10:47:43;;;;;;;;;35.75;30.00;;;;;;;;5058423;28;45386;-76
2022/01/06 10:50:11;;;;;;;;;10.00;9.67;;;;;;;;5058683;28;45349;-76
2022/01/06 10:52:39;;;;;;;;;13.75;13.00;;;;;;;;5058820;28;45461;-75
2022/01/06 10:55:12;;;;;;;;;29.75;28.75;;;;;;;;5058855;28;45483;-75
2022/01/06 10:57:48;;;;;;;;;6.00;5.00;;;;;;;;5058382;28;45513;-75
2022/01/06 11:00:16;;;;;;;;;5.00;5.00;;;;;;;;5058151;28;45479;-73
2022/01/06 11:02:41;;;;;;;;;9.00;6.75;;;;;;;;5058450;28;45495;-74
2022/01/06 11:05:07;;;;;;;;;11.75;10.00;;;;;;;;5058782;28;45349;-73
2022/01/06 11:07:32;;;;;;;;;7.75;7.25;;;;;;;;5058562;28;46521;-76
2022/01/06 11:09:57;;;;;;;;;3.00;3.00;;;;;;;;5058813;28;45353;-76
2022/01/06 11:12:26;;;;;;;;;3.00;2.00;;;;;;;;5058802;28;45479;-75
2022/01/06 11:14:52;;;;;;;;;4.50;3.00;;;;;;;;5058511;28;45385;-75
2022/01/06 11:17:21;;;;;;;;;5.50;5.00;;;;;;;;5058260;28;45365;-75
2022/01/06 11:19:47;;;;;;;;;6.75;5.00;;;;;;;;5058367;28;45410;-75
2022/01/06 11:22:13;;;;;;;;;7.00;5.00;;;;;;;;5058615;28;45479;-76
2022/01/06 11:24:39;;;;;;;;;10.50;8.00;;;;;;;;5058555;28;45328;-75
2022/01/06 11:27:10;;;;;;;;;8.00;7.00;;;;;;;;5058156;28;45559;-76
2022/01/06 11:29:35;;;;;;;;;10.25;9.50;;;;;;;;5058084;28;45312;-77
2022/01/06 11:32:02;;;;;;;;;5.75;5.75;;;;;;;;5057990;28;45294;-76
2022/01/06 11:34:29;;;;;;;;;5.00;5.00;;;;;;;;5057950;28;45472;-76
2022/01/06 11:36:55;;;;;;;;;7.00;6.00;;;;;;;;5057750;28;46076;-74
2022/01/06 11:39:28;;;;;;;;;3.25;3.25;;;;;;;;5057850;28;45325;-74
2022/01/06 11:41:54;;;;;;;;;7.00;5.25;;;;;;;;5058017;28;45530;-75
2022/01/06 11:44:25;;;;;;;;;3.50;2.00;;;;;;;;5058044;28;45210;-75
2022/01/06 11:46:53;;;;;;;;;4.00;3.00;;;;;;;;5057613;28;45352;-75
2022/01/06 11:49:34;;;;;;;;;4.00;4.00;;;;;;;;5057810;28;45416;-74
2022/01/06 11:52:05;;;;;;;;;4.00;3.25;;;;;;;;5058134;28;45417;-75
2022/01/06 11:54:31;;;;;;;;;2.75;2.00;;;;;;;;5058335;28;45499;-75
2022/01/06 11:56:57;;;;;;;;;2.50;2.25;;;;;;;;5057687;28;45413;-75
2022/01/06 11:59:29;;;;;;;;;3.00;2.75;;;;;;;;5057876;28;45383;-76
2022/01/06 12:01:54;;;;;;;;;3.50;2.00;;;;;;;;5057936;28;45237;-75
2022/01/06 12:04:21;;;;;;;;;1.25;1.25;;;;;;;;5057936;28;45474;-75
2022/01/06 12:06:47;;;;;;;;;7.00;6.00;;;;;;;;5056975;28;46107;-77
2022/01/06 12:09:20;;;;;;;;;3.00;2.00;;;;;;;;5057477;28;45324;-76
2022/01/06 12:11:46;;;;;;;;;1.25;1.25;;;;;;;;5057266;28;45372;-75
2022/01/06 12:14:12;;;;;;;;;3.00;2.00;;;;;;;;5057790;28;45304;-75
2022/01/06 12:16:38;;;;;;;;;2.25;2.00;;;;;;;;5057280;28;45606;-75
2022/01/06 12:19:15;;;;;;;;;5.25;5.00;;;;;;;;5057738;28;46123;-75
2022/01/06 12:21:41;;;;;;;;;3.50;2.00;;;;;;;;5057583;28;45473;-76
2022/01/06 12:24:07;;;;;;;;;2.00;1.00;;;;;;;;5057874;28;45266;-77
2022/01/06 12:26:33;;;;;;;;;5.50;3.50;;;;;;;;5057243;28;46261;-76
2022/01/06 12:28:59;;;;;;;;;4.00;2.00;;;;;;;;5056989;28;45157;-76
2022/01/06 12:31:26;;;;;;;;;1.50;1.00;;;;;;;;5055578;28;45527;-76
2022/01/06 12:33:58;;;;;;;;;2.75;2.00;;;;;;;;5057402;28;45506;-78
2022/01/06 12:36:23;;;;;;;;;1.25;1.25;;;;;;;;5056057;28;46402;-78
2022/01/06 12:38:49;;;;;;;;;21.75;18.50;;;;;;;;5056889;28;45424;-78
2022/01/06 12:41:16;;;;;;;;;3.25;1.50;;;;;;;;5056880;28;45537;-78
2022/01/06 12:43:43;;;;;;;;;2.00;2.00;;;;;;;;5056843;28;45489;-78
2022/01/06 12:46:10;;;;;;;;;0.00;0.00;;;;;;;;5056717;28;46152;-78
2022/01/06 12:48:40;;;;;;;;;7.75;7.75;;;;;;;;5057169;28;45309;-78
2022/01/06 12:51:07;;;;;;;;;1.00;1.00;;;;;;;;5057251;28;45306;-76
2022/01/06 12:53:41;;;;;;;;;2.00;1.00;;;;;;;;5057670;28;45512;-76
2022/01/06 12:56:06;;;;;;;;;0.25;0.25;;;;;;;;5057081;28;46239;-77
2022/01/06 12:58:33;;;;;;;;;0.00;0.00;;;;;;;;5056767;28;45492;-77
2022/01/06 13:01:02;;;;;;;;;0.00;0.00;;;;;;;;5057092;28;45466;-77
2022/01/06 13:03:35;;;;;;;;;1.25;1.00;;;;;;;;5057059;28;45315;-77
2022/01/06 13:06:01;;;;;;;;;0.00;0.00;;;;;;;;5056786;28;45466;-77
2022/01/06 13:08:28;;;;;;;;;3.00;3.00;;;;;;;;5057207;28;45350;-77
2022/01/06 13:11:06;;;;;;;;;0.00;0.00;;;;;;;;5056927;28;45458;-78
2022/01/06 13:13:42;;;;;;;;;50.50;40.00;;;;;;;;5055768;28;45373;-77
2022/01/06 13:16:19;;;;;;;;;1.50;1.00;;;;;;;;5057033;28;46134;-78
2022/01/06 13:18:52;;;;;;;;;0.00;0.00;;;;;;;;5056666;28;45541;-77
2022/01/06 13:21:48;;;;;;;;;20.00;19.25;;;;;;;;5056635;28;45365;-76
2022/01/06 13:24:18;;;;;;;;;2.00;2.00;;;;;;;;5048444;28;45542;-77
2022/01/06 13:26:52;;;;;;;;;1.75;1.75;;;;;;;;5056365;28;45255;-77
2022/01/06 13:29:24;;;;;;;;;2.75;2.75;;;;;;;;5056564;28;45358;-77
2022/01/06 13:32:16;;;;;;;;;1.00;0.00;;;;;;;;5056454;28;45373;-76
2022/01/06 13:34:45;;;;;;;;;1.25;1.00;;;;;;;;5054441;28;45355;-76
2022/01/06 13:37:15;;;;;;;;;2.25;1.00;;;;;;;;5056718;28;45524;-77
2022/01/06 13:39:44;;;;;;;;;4.00;3.00;;;;;;;;5057144;28;45270;-77
2022/01/06 13:42:11;;;;;;;;;1.00;1.00;;;;;;;;5056750;28;45444;-76
2022/01/06 13:44:37;;;;;;;;;2.00;1.00;;;;;;;;5057242;28;45448;-75
2022/01/06 13:47:12;;;;;;;;;1.00;1.00;;;;;;;;5056185;28;45252;-77
2022/01/06 13:52:23;;;;;;;;;0.00;0.00;;;;;;;;5056424;28;45373;-76
2022/01/06 13:54:49;;;;;;;;;2.00;1.50;;;;;;;;5058282;28;45455;-76
2022/01/06 13:57:14;;;;;;;;;0.00;0.00;;;;;;;;5058350;28;45452;-77
2022/01/06 13:59:41;;;;;;;;;1.00;0.75;;;;;;;;5058813;28;45322;-77
2022/01/06 14:02:07;;;;;;;;;10.25;9.25;;;;;;;;5059649;28;45502;-77
2022/01/06 14:04:35;;;;;;;;;11.00;10.75;;;;;;;;5059659;28;45315;-77
2022/01/06 14:07:01;;;;;;;;;1.00;1.00;;;;;;;;5059157;28;45437;-76
2022/01/06 14:09:26;;;;;;;;;0.00;0.00;;;;;;;;5059401;28;45839;-77
2022/01/06 14:11:52;;;;;;;;;0.00;0.00;;;;;;;;5059534;28;45340;-76
2022/01/06 14:14:18;;;;;;;;;2.00;1.00;;;;;;;;5059846;28;45444;-76
2022/01/06 14:16:43;;;;;;;;;1.25;0.50;;;;;;;;5059315;28;45521;-76
2022/01/06 14:19:09;;;;;;;;;4.75;4.75;;;;;;;;5059739;28;45490;-77
2022/01/06 14:21:34;;;;;;;;;1.00;1.00;;;;;;;;5059471;28;45491;-77
2022/01/06 14:23:59;;;;;;;;;3.50;3.50;;;;;;;;5059809;28;45237;-77
2022/01/06 14:26:25;;;;;;;;;0.00;0.00;;;;;;;;5059175;28;45189;-77
2022/01/06 14:28:50;;;;;;;;;5.00;4.00;;;;;;;;5058070;28;45279;-77
2022/01/06 14:31:15;;;;;;;;;7.00;5.25;;;;;;;;5059629;28;45595;-77
2022/01/06 14:33:41;;;;;;;;;1.25;1.25;;;;;;;;5059942;28;45297;-77
2022/01/06 14:36:08;;;;;;;;;3.25;3.00;;;;;;;;5057513;28;46487;-77
2022/01/06 14:38:34;;;;;;;;;0.00;0.00;;;;;;;;5057828;28;45321;-77
2022/01/06 14:40:59;;;;;;;;;1.75;1.00;;;;;;;;5057726;28;45610;-77
2022/01/06 14:43:24;;;;;;;;;1.00;0.00;;;;;;;;5059150;28;45639;-76